Time;durP1;ratioP1;P1;durP2;ratioP2;P2;SDS_P1;SDS_P2;PMS_P1;PMS_P2;Temp;Humidity;BMP_temperature;BMP_pressure;BME280_temperature;BME280_humidity;BME280_pressure;Samples;Min_cycle;Max_cycle;Signal;HPM_P1;HPM_P2
2021/12/21 00:02:29;;;;;;;46.03;23.33;;;-1.90;99.90;;;;;;5083524;28;20054;-83
2021/12/21 00:05:20;;;;;;;44.60;23.37;;;-2.00;99.90;;;;;;5112187;28;20054;-83
2021/12/21 00:08:08;;;;;;;48.23;23.63;;;-1.90;99.90;;;;;;5070242;28;20043;-82
2021/12/21 00:10:54;;;;;;;45.97;23.73;;;-1.90;99.90;;;;;;5112983;28;20046;-82
2021/12/21 00:13:54;;;;;;;44.80;23.27;;;-1.90;99.90;;;;;;5083796;28;20088;-82
2021/12/21 00:17:02;;;;;;;47.67;25.10;;;-1.90;99.90;;;;;;5085388;28;20047;-83
2021/12/21 00:25:34;;;;;;;48.10;24.03;;;-2.00;99.90;;;;;;5112695;28;20055;-83
2021/12/21 00:28:18;;;;;;;;;;;-2.00;99.90;;;;;;5097122;28;20058;-83
2021/12/21 00:31:03;;;;;;;46.50;25.25;;;-2.00;99.90;;;;;;5082872;28;19918;-84
2021/12/21 00:33:47;;;;;;;46.57;24.93;;;-0.80;99.90;;;;;;5097177;28;20035;-82
2021/12/21 00:36:32;;;;;;;47.83;24.87;;;-2.10;99.90;;;;;;5096991;28;20069;-82
2021/12/21 00:39:17;;;;;;;44.40;24.47;;;-2.10;99.90;;;;;;5111835;28;20499;-83
2021/12/21 00:42:01;;;;;;;;;;;-2.10;99.90;;;;;;5097643;28;20066;-83
2021/12/21 00:44:46;;;;;;;;;;;-2.10;99.90;;;;;;5112917;28;19915;-83
2021/12/21 00:47:33;;;;;;;46.77;23.37;;;-2.20;99.90;;;;;;5096831;28;19919;-83
2021/12/21 00:50:19;;;;;;;49.03;23.70;;;-2.20;99.90;;;;;;5096458;28;20074;-83
2021/12/21 00:53:05;;;;;;;45.87;23.83;;;-2.20;99.90;;;;;;5096783;28;20100;-82
2021/12/21 00:55:50;;;;;;;47.47;22.80;;;-0.90;99.90;;;;;;5068940;28;20109;-82
2021/12/21 00:58:34;;;;;;;48.20;25.23;;;-2.20;99.90;;;;;;5112307;28;20483;-83
2021/12/21 01:01:18;;;;;;;46.72;25.75;;;-2.20;99.90;;;;;;5096233;28;20039;-83
2021/12/21 01:04:07;;;;;;;49.93;26.90;;;-2.20;99.90;;;;;;5082666;28;20067;-83
2021/12/21 01:18:21;;;;;;;48.80;26.47;;;-2.30;99.90;;;;;;5096441;28;20042;-85
2021/12/21 01:21:19;;;;;;;53.47;28.63;;;-2.30;99.90;;;;;;5112217;28;20406;-83
2021/12/21 01:27:22;;;;;;;53.23;28.33;;;-2.30;99.90;;;;;;5097142;28;20399;-83
2021/12/21 01:33:07;;;;;;;55.30;27.77;;;-2.30;99.90;;;;;;5097074;28;19918;-83
2021/12/21 01:35:54;;;;;;;46.87;26.03;;;-2.40;99.90;;;;;;5100519;28;20070;-83
2021/12/21 01:41:59;;;;;;;45.47;24.50;;;-2.40;99.90;;;;;;5111952;28;20128;-83
2021/12/21 01:49:35;;;;;;;48.13;26.97;;;-2.40;99.90;;;;;;5084687;28;20050;-83
2021/12/21 01:50:51;;;;;;;46.97;24.23;;;-2.40;99.90;;;;;;5103018;28;20093;-83
2021/12/21 01:53:36;;;;;;;49.07;25.50;;;-2.40;99.90;;;;;;5099376;28;20034;-83
2021/12/21 01:56:21;;;;;;;47.17;25.23;;;-2.40;99.90;;;;;;5085237;28;20042;-84
2021/12/21 01:59:05;;;;;;;45.53;24.40;;;-2.50;99.90;;;;;;5115546;28;20039;-82
2021/12/21 02:01:49;;;;;;;42.13;23.73;;;-2.40;99.90;;;;;;5115503;28;20495;-82
2021/12/21 02:04:33;;;;;;;;;;;-2.50;99.90;;;;;;5114995;28;20501;-83
2021/12/21 02:07:17;;;;;;;40.67;23.17;;;-2.50;99.90;;;;;;5115015;28;19919;-84
2021/12/21 02:10:03;;;;;;;41.57;23.77;;;-2.50;99.90;;;;;;5085684;28;20081;-82
2021/12/21 02:12:48;;;;;;;44.77;24.23;;;-2.50;99.90;;;;;;5071658;28;20046;-82
2021/12/21 02:15:33;;;;;;;43.33;23.83;;;-2.50;99.90;;;;;;5070712;28;20050;-83
2021/12/21 02:18:46;;;;;;;35.27;21.57;;;-2.60;99.90;;;;;;5115135;28;20046;-83
2021/12/21 02:21:36;;;;;;;36.73;20.80;;;-2.60;99.90;;;;;;5088634;28;20078;-82
2021/12/21 02:24:22;;;;;;;36.83;21.23;;;-2.50;99.90;;;;;;5100286;28;20092;-85
2021/12/21 02:27:18;;;;;;;38.50;20.40;;;-1.80;99.90;;;;;;5099544;28;20042;-83
2021/12/21 02:30:05;;;;;;;37.40;20.37;;;-2.60;99.90;;;;;;5066050;28;20039;-83
2021/12/21 02:32:50;;;;;;;38.07;21.57;;;-2.60;99.90;;;;;;5094601;28;20039;-83
2021/12/21 02:35:35;;;;;;;36.83;20.07;;;-2.60;99.90;;;;;;5107231;28;20161;-83
2021/12/21 02:38:19;;;;;;;37.57;21.37;;;-2.60;99.90;;;;;;5094480;28;20039;-83
2021/12/21 02:41:04;;;;;;;40.93;23.33;;;-2.60;99.90;;;;;;5107335;28;20139;-83
2021/12/21 02:43:49;;;;;;;36.87;20.83;;;-2.00;99.90;;;;;;5107101;28;20093;-83
2021/12/21 02:46:34;;;;;;;38.27;20.47;;;-2.50;99.90;;;;;;5092500;28;20034;-83
2021/12/21 02:49:18;;;;;;;37.90;20.27;;;-2.70;99.90;;;;;;5094029;28;20043;-83
2021/12/21 02:52:03;;;;;;;30.67;19.53;;;-2.70;99.90;;;;;;5107504;28;20067;-83
2021/12/21 02:54:48;;;;;;;39.77;21.47;;;-2.70;99.90;;;;;;5096688;28;20042;-83
2021/12/21 02:57:32;;;;;;;37.30;21.67;;;-2.70;99.90;;;;;;5098276;28;20061;-83
2021/12/21 03:00:16;;;;;;;36.73;20.00;;;-2.70;99.90;;;;;;5114288;28;20050;-83
2021/12/21 03:03:07;;;;;;;36.63;20.77;;;-2.80;99.90;;;;;;5098729;28;20047;-84
2021/12/21 03:05:54;;;;;;;38.43;20.77;;;-2.70;99.90;;;;;;5099063;28;20081;-83
2021/12/21 03:08:43;;;;;;;40.10;20.03;;;-2.30;99.90;;;;;;5084283;28;20450;-83
2021/12/21 03:11:48;;;;;;;35.67;18.87;;;-2.80;99.90;;;;;;5099420;28;20073;-83
2021/12/21 03:14:32;;;;;;;34.07;19.97;;;-2.80;99.90;;;;;;5098113;28;20084;-84
2021/12/21 03:17:18;;;;;;;37.90;20.47;;;-2.80;99.90;;;;;;5098420;28;20103;-83
2021/12/21 03:20:03;;;;;;;35.60;19.97;;;-2.80;99.90;;;;;;5098422;28;20544;-83
2021/12/21 03:22:48;;;;;;;33.07;20.93;;;-2.80;99.90;;;;;;5083365;28;20065;-83
2021/12/21 03:25:35;;;;;;;41.03;20.53;;;-2.80;99.90;;;;;;5083844;28;20043;-84
2021/12/21 03:28:19;;;;;;;37.10;20.33;;;-2.20;99.90;;;;;;5083939;28;20104;-83
2021/12/21 03:31:03;;;;;;;40.30;21.23;;;-2.80;99.90;;;;;;5098166;28;20096;-83
2021/12/21 03:33:48;;;;;;;40.73;20.10;;;-2.80;99.90;;;;;;5097619;28;20502;-83
2021/12/21 03:36:33;;;;;;;36.57;20.07;;;-2.90;99.90;;;;;;5113139;28;20037;-84
2021/12/21 03:39:18;;;;;;;37.43;20.87;;;-2.90;99.90;;;;;;5113486;28;20039;-83
2021/12/21 03:42:03;;;;;;;37.87;21.17;;;-2.90;99.90;;;;;;5113065;28;20055;-83
2021/12/21 03:44:48;;;;;;;33.57;18.97;;;-2.90;99.90;;;;;;5112837;28;20558;-83
2021/12/21 03:47:32;;;;;;;32.87;19.00;;;-2.90;99.90;;;;;;5112304;28;20039;-82
2021/12/21 03:50:20;;;;;;;36.07;20.77;;;-2.90;99.90;;;;;;5126799;27;20505;-83
2021/12/21 03:53:04;;;;;;;36.63;20.30;;;-3.00;99.90;;;;;;5098307;28;20526;-83
2021/12/21 03:55:59;;;;;;;38.20;18.80;;;-2.30;99.90;;;;;;5126180;27;20119;-83
2021/12/21 03:58:43;;;;;;;32.95;19.13;;;-3.00;99.90;;;;;;5097182;28;20148;-83
2021/12/21 04:01:28;;;;;;;32.20;18.27;;;-3.00;99.90;;;;;;5077230;28;20119;-83
2021/12/21 04:04:12;;;;;;;32.33;18.40;;;-3.00;99.90;;;;;;5091607;28;20055;-83
2021/12/21 04:06:57;;;;;;;32.77;19.37;;;-3.00;99.90;;;;;;5088783;28;20151;-83
2021/12/21 04:09:41;;;;;;;32.60;18.90;;;-3.00;99.90;;;;;;5068435;28;20096;-83
2021/12/21 04:12:25;;;;;;;;;;;-3.00;99.90;;;;;;5097867;28;20042;-83
2021/12/21 04:15:10;;;;;;;32.45;18.65;;;-2.80;99.90;;;;;;5097605;28;19937;-82
2021/12/21 04:17:54;;;;;;;31.33;18.47;;;-1.10;99.90;;;;;;5082651;28;20043;-82
2021/12/21 04:20:39;;;;;;;29.43;16.67;;;-3.00;99.90;;;;;;5112748;28;20086;-82
2021/12/21 04:23:24;;;;;;;32.77;17.80;;;-3.00;99.90;;;;;;5112801;28;20127;-82
2021/12/21 04:26:10;;;;;;;31.67;17.23;;;-3.00;99.90;;;;;;5097279;28;20034;-83
2021/12/21 04:28:54;;;;;;;33.23;17.30;;;-3.00;99.90;;;;;;5096732;28;20483;-82
2021/12/21 04:31:38;;;;;;;32.83;17.77;;;-3.00;99.90;;;;;;5097336;28;20136;-82
2021/12/21 04:34:23;;;;;;;31.20;18.17;;;-3.10;99.90;;;;;;5097362;28;20132;-82
2021/12/21 04:37:08;;;;;;;32.13;16.15;;;-2.40;99.90;;;;;;5111866;28;20078;-82
2021/12/21 04:40:04;;;;;;;28.43;16.53;;;-3.10;99.90;;;;;;5082542;28;20069;-83
2021/12/21 04:42:49;;;;;;;29.07;17.60;;;-3.10;99.90;;;;;;5096623;28;20063;-83
2021/12/21 04:45:34;;;;;;;25.17;14.77;;;-3.10;99.90;;;;;;5112628;28;20499;-82
2021/12/21 04:48:18;;;;;;;32.70;16.50;;;-2.20;99.90;;;;;;5097125;28;20403;-83
2021/12/21 04:51:02;;;;;;;;;;;-3.10;99.90;;;;;;5112243;28;20404;-84
2021/12/21 04:53:46;;;;;;;;;;;-2.30;99.90;;;;;;5097164;28;19915;-85
2021/12/21 04:56:31;;;;;;;25.02;14.52;;;-2.80;99.90;;;;;;5097161;28;20008;-82
2021/12/21 04:59:15;;;;;;;32.37;16.40;;;-3.20;99.90;;;;;;5096985;28;20050;-82
2021/12/21 05:02:00;;;;;;;28.33;15.37;;;-1.80;99.90;;;;;;5111509;28;20066;-82
2021/12/21 05:04:43;;;;;;;;;;;-3.20;99.90;;;;;;5097302;28;20101;-82
2021/12/21 05:07:31;;;;;;;24.92;14.48;;;-1.30;99.90;;;;;;5096892;28;19937;-82
2021/12/21 05:10:15;;;;;;;27.03;14.67;;;-3.20;99.90;;;;;;5112185;28;20420;-82
2021/12/21 05:12:59;;;;;;;26.08;13.00;;;-3.20;99.90;;;;;;5096259;28;20046;-82
2021/12/21 05:15:43;;;;;;;;;;;-3.20;99.90;;;;;;5089468;28;20031;-82
2021/12/21 05:18:28;;;;;;;21.67;13.53;;;-3.20;99.90;;;;;;5078758;28;20268;-82
2021/12/21 05:21:12;;;;;;;24.07;13.83;;;-3.20;99.90;;;;;;5091020;28;20047;-82
2021/12/21 05:23:57;;;;;;;27.03;14.10;;;-3.30;99.90;;;;;;5101081;28;20081;-84
2021/12/21 05:26:42;;;;;;;25.23;13.10;;;-3.30;99.90;;;;;;5116172;28;20107;-82
2021/12/21 05:29:26;;;;;;;24.43;12.80;;;-3.30;99.90;;;;;;5111244;27;20084;-82
2021/12/21 05:32:11;;;;;;;25.17;12.30;;;-3.30;99.90;;;;;;5115381;27;20103;-82
2021/12/21 05:34:55;;;;;;;20.93;12.17;;;-3.30;99.90;;;;;;5097740;28;20035;-83
2021/12/21 05:37:41;;;;;;;24.97;12.23;;;-2.40;99.90;;;;;;5099452;28;20065;-82
2021/12/21 05:40:33;;;;;;;17.87;10.33;;;-3.30;99.90;;;;;;5128553;27;20043;-82
2021/12/21 05:43:17;;;;;;;23.30;11.53;;;-3.30;99.90;;;;;;5100747;28;20055;-83
2021/12/21 05:46:02;;;;;;;21.33;11.57;;;-3.30;99.90;;;;;;5084762;28;20061;-82
2021/12/21 05:48:51;;;;;;;25.13;11.87;;;-3.30;99.90;;;;;;5071240;28;20038;-82
2021/12/21 05:51:35;;;;;;;20.97;10.50;;;-2.60;99.90;;;;;;5100322;28;20062;-82
2021/12/21 05:54:21;;;;;;;21.60;10.20;;;-3.30;99.90;;;;;;5109942;28;20039;-82
2021/12/21 05:57:06;;;;;;;19.53;9.07;;;-3.30;99.90;;;;;;5114242;28;20034;-82
2021/12/21 05:59:50;;;;;;;22.53;10.50;;;-3.20;99.90;;;;;;5114933;28;20108;-82
2021/12/21 06:02:35;;;;;;;18.23;10.80;;;-3.40;99.90;;;;;;5066483;28;20035;-83
2021/12/21 06:05:19;;;;;;;18.17;10.30;;;-3.40;99.90;;;;;;5112895;28;20092;-82
2021/12/21 06:08:04;;;;;;;19.13;9.20;;;-3.40;99.90;;;;;;5127489;27;20537;-82
2021/12/21 06:10:51;;;;;;;21.20;10.40;;;-3.40;99.90;;;;;;5096587;28;20073;-83
2021/12/21 06:14:03;;;;;;;17.97;9.27;;;-3.40;99.90;;;;;;5097563;27;20034;-83
2021/12/21 06:26:00;;;;;;;14.77;7.80;;;-3.50;99.90;;;;;;5100622;28;20094;-82
2021/12/21 06:28:46;;;;;;;14.60;7.50;;;-3.50;99.90;;;;;;5106887;28;20035;-82
2021/12/21 06:31:30;;;;;;;13.73;7.47;;;-3.50;99.90;;;;;;5078705;28;20030;-82
2021/12/21 06:34:15;;;;;;;11.10;7.13;;;-3.50;99.90;;;;;;5078048;28;20096;-82
2021/12/21 06:36:59;;;;;;;13.93;7.40;;;-3.50;99.90;;;;;;5107011;27;20115;-82
2021/12/21 06:39:44;;;;;;;14.27;7.60;;;-3.50;99.90;;;;;;5107391;28;20136;-82
2021/12/21 06:42:29;;;;;;;10.70;5.80;;;-2.40;99.90;;;;;;5078016;28;20055;-82
2021/12/21 06:45:26;;;;;;;14.10;6.80;;;-3.50;99.90;;;;;;5106374;27;20035;-82
2021/12/21 06:51:30;;;;;;;;;;;-3.50;99.90;;;;;;5093759;27;20042;-83
2021/12/21 06:54:14;;;;;;;13.90;6.40;;;-3.50;99.90;;;;;;5077607;28;20018;-82
2021/12/21 06:56:58;;;;;;;12.90;6.67;;;-3.50;99.90;;;;;;5106964;28;20031;-82
2021/12/21 06:59:42;;;;;;;;;;;-3.50;99.90;;;;;;5092743;27;20039;-82
2021/12/21 07:02:27;;;;;;;12.15;6.30;;;-3.50;99.90;;;;;;5079715;28;19923;-82
2021/12/21 07:05:12;;;;;;;12.97;6.73;;;-3.60;99.90;;;;;;5106036;28;20074;-83
2021/12/21 07:07:56;;;;;;;14.67;6.80;;;-3.60;99.90;;;;;;5077720;28;20051;-82
2021/12/21 07:10:44;;;;;;;11.23;6.10;;;-3.40;99.90;;;;;;5106437;28;20034;-82
2021/12/21 07:19:35;;;;;;;12.88;8.13;;;-3.50;99.90;;;;;;5093064;28;20043;-82
2021/12/21 07:22:20;;;;;;;10.87;6.43;;;-3.50;99.90;;;;;;5077000;28;20426;-82
2021/12/21 07:25:04;;;;;;;13.37;7.03;;;-3.50;99.90;;;;;;5106137;28;20047;-83
2021/12/21 07:27:48;;;;;;;13.87;7.27;;;-3.50;99.90;;;;;;5091790;28;20500;-83
2021/12/21 07:30:32;;;;;;;;;;;-3.50;99.90;;;;;;5091838;28;20080;-82
2021/12/21 07:33:17;;;;;;;11.90;6.68;;;-3.60;99.90;;;;;;5076844;28;19970;-83
2021/12/21 07:36:02;;;;;;;11.00;7.20;;;-3.50;99.90;;;;;;5091438;28;20089;-82
2021/12/21 07:38:46;;;;;;;10.77;7.57;;;-3.40;99.90;;;;;;5105920;28;20057;-83
2021/12/21 07:41:31;;;;;;;15.03;7.13;;;-3.50;99.90;;;;;;5105163;28;20059;-82
2021/12/21 07:44:15;;;;;;;13.07;7.97;;;-3.50;99.90;;;;;;5106007;28;20093;-83
2021/12/21 07:46:59;;;;;;;;;;;-3.50;99.90;;;;;;5093124;28;20050;-82
2021/12/21 07:49:43;;;;;;;14.35;8.13;;;-3.50;99.90;;;;;;5077622;28;19915;-83
2021/12/21 07:52:28;;;;;;;13.63;8.03;;;-3.50;99.90;;;;;;5105786;28;20076;-83
2021/12/21 07:55:12;;;;;;;13.97;7.80;;;-3.50;99.90;;;;;;5077386;28;20453;-84
2021/12/21 07:57:56;;;;;;;13.30;7.17;;;-3.50;99.90;;;;;;5106017;28;20115;-83
2021/12/21 08:00:41;;;;;;;19.37;8.70;;;-3.50;99.90;;;;;;5105648;28;20491;-82
2021/12/21 08:03:26;;;;;;;13.50;7.87;;;-3.50;99.90;;;;;;5076631;28;20047;-83
2021/12/21 08:06:14;;;;;;;12.80;8.10;;;-3.50;99.90;;;;;;5076921;28;20039;-83
2021/12/21 08:08:59;;;;;;;18.00;9.33;;;-1.50;99.90;;;;;;5092913;28;20039;-83
2021/12/21 08:14:48;;;;;;;18.47;9.23;;;-3.40;99.90;;;;;;5092610;28;20043;-84
2021/12/21 08:17:32;;;;;;;17.23;8.57;;;-2.40;99.90;;;;;;5091976;28;20039;-83
2021/12/21 08:20:17;;;;;;;16.50;9.40;;;-3.40;99.90;;;;;;5091117;28;20047;-84
2021/12/21 08:23:02;;;;;;;15.07;9.50;;;-3.40;99.90;;;;;;5091486;28;20069;-82
2021/12/21 08:25:46;;;;;;;16.57;8.80;;;-3.30;99.90;;;;;;5077101;28;20031;-82
2021/12/21 08:28:31;;;;;;;22.30;10.03;;;-2.30;99.90;;;;;;5091814;28;20442;-82
2021/12/21 08:31:16;;;;;;;19.10;9.17;;;-3.30;99.90;;;;;;5077037;28;20109;-82
2021/12/21 08:34:00;;;;;;;18.27;8.33;;;-1.90;99.90;;;;;;5105031;28;20380;-83
2021/12/21 08:36:45;;;;;;;16.07;10.20;;;-3.20;99.90;;;;;;5082175;28;20034;-82
2021/12/21 08:39:37;;;;;;;18.77;8.77;;;-3.20;99.90;;;;;;5111000;28;20050;-82
2021/12/21 08:42:23;;;;;;;18.90;10.57;;;-3.10;99.90;;;;;;5083284;28;20082;-84
2021/12/21 08:45:08;;;;;;;16.60;9.30;;;-1.00;99.90;;;;;;5111970;28;20046;-82
2021/12/21 08:47:55;;;;;;;14.70;8.37;;;-3.10;99.90;;;;;;5097144;28;20498;-82
2021/12/21 08:50:40;;;;;;;17.77;9.33;;;-2.70;99.90;;;;;;5111848;28;20183;-82
2021/12/21 08:53:25;;;;;;;20.17;8.63;;;-3.00;99.90;;;;;;5096515;28;20035;-83
2021/12/21 08:56:10;;;;;;;19.67;9.53;;;-3.00;99.90;;;;;;5097610;28;20038;-82
2021/12/21 08:58:54;;;;;;;;;;;-1.50;99.90;;;;;;5087533;28;20124;-82
2021/12/21 09:01:38;;;;;;;20.20;9.88;;;-2.90;99.90;;;;;;5086288;28;19937;-82
2021/12/21 09:04:22;;;;;;;19.33;9.70;;;-2.80;99.90;;;;;;5101038;28;20074;-85
2021/12/21 09:07:07;;;;;;;22.73;11.10;;;-2.80;99.90;;;;;;5087042;28;20043;-83
2021/12/21 09:09:51;;;;;;;26.70;12.50;;;-2.70;99.90;;;;;;5116843;28;20074;-83
2021/12/21 09:12:36;;;;;;;21.40;12.07;;;-2.70;99.90;;;;;;5115040;28;20074;-83
2021/12/21 09:15:22;;;;;;;25.83;13.63;;;-2.70;99.90;;;;;;5101959;28;20042;-84
2021/12/21 09:18:07;;;;;;;24.77;12.93;;;-2.60;99.90;;;;;;5101422;28;20046;-83
2021/12/21 09:20:51;;;;;;;22.43;12.73;;;-2.60;99.90;;;;;;5101063;28;20092;-83
2021/12/21 09:23:35;;;;;;;20.50;12.50;;;-2.50;99.90;;;;;;5115769;28;20046;-84
2021/12/21 09:26:19;;;;;;;;;;;-0.90;99.90;;;;;;5130367;27;20081;-84
2021/12/21 09:29:04;;;;;;;18.80;10.68;;;-2.40;99.90;;;;;;5086715;28;19919;-84
2021/12/21 09:31:48;;;;;;;17.83;10.03;;;-2.30;99.90;;;;;;5100382;28;20054;-84
2021/12/21 09:34:32;;;;;;;;;;;-0.70;99.90;;;;;;5100698;28;20043;-84
2021/12/21 09:37:20;;;;;;;22.60;11.38;;;-1.10;99.90;;;;;;5100821;28;19915;-84
2021/12/21 09:40:08;;;;;;;24.87;10.73;;;-2.10;99.90;;;;;;5100678;28;20064;-84
2021/12/21 09:42:52;;;;;;;26.53;11.27;;;-2.10;99.90;;;;;;5099859;28;20050;-84
2021/12/21 09:45:37;;;;;;;;;;;-2.00;99.90;;;;;;5100290;28;20104;-84
2021/12/21 09:48:23;;;;;;;;;;;-1.20;99.90;;;;;;5100860;28;20435;-84
2021/12/21 09:51:08;;;;;;;18.37;10.37;;;-0.70;99.90;;;;;;5100698;28;19965;-84
2021/12/21 09:53:56;;;;;;;23.37;10.43;;;-1.80;99.90;;;;;;5099743;28;20437;-84
2021/12/21 09:56:40;;;;;;;20.00;9.93;;;-1.70;99.90;;;;;;5115181;28;20502;-84
2021/12/21 09:59:25;;;;;;;19.70;9.83;;;-0.10;99.90;;;;;;5085998;28;20038;-84
2021/12/21 10:02:10;;;;;;;21.00;10.00;;;-1.50;99.90;;;;;;5085845;28;20113;-84
2021/12/21 10:04:58;;;;;;;20.57;10.33;;;-1.40;99.90;;;;;;5115181;28;20038;-84
2021/12/21 10:07:41;;;;;;;19.70;9.93;;;-0.60;99.90;;;;;;5099074;28;20388;-84
2021/12/21 10:10:26;;;;;;;;;;;0.40;99.90;;;;;;5100560;28;20453;-83
2021/12/21 10:13:17;;;;;;;20.65;10.50;;;0.20;99.90;;;;;;5115495;28;19961;-84
2021/12/21 10:16:04;;;;;;;19.87;10.90;;;-1.00;99.90;;;;;;5115540;28;20042;-84
2021/12/21 10:18:49;;;;;;;16.43;8.80;;;-0.90;99.90;;;;;;5114804;28;20547;-84
2021/12/21 10:21:44;;;;;;;20.97;9.40;;;-0.90;99.90;;;;;;5115042;28;20046;-84
2021/12/21 10:24:28;;;;;;;17.03;8.73;;;0.80;99.90;;;;;;5115326;28;20085;-83
2021/12/21 10:27:14;;;;;;;14.73;8.83;;;-0.70;99.90;;;;;;5115172;28;20054;-84
2021/12/21 10:30:00;;;;;;;15.07;8.53;;;-0.60;99.90;;;;;;5099635;28;20050;-84
2021/12/21 10:32:54;;;;;;;18.37;8.60;;;-0.20;99.90;;;;;;5099147;28;20038;-84
2021/12/21 10:35:39;;;;;;;14.35;8.20;;;-0.40;99.90;;;;;;5114573;28;20038;-84
2021/12/21 10:38:36;;;;;;;19.77;8.33;;;-0.40;99.90;;;;;;5085370;28;20399;-84
2021/12/21 10:41:26;;;;;;;18.83;9.07;;;-0.30;99.90;;;;;;5114720;28;20066;-84
2021/12/21 10:44:16;;;;;;;17.10;7.17;;;0.70;99.90;;;;;;5114984;28;20142;-84
2021/12/21 10:47:01;;;;;;;16.43;7.33;;;-0.10;99.90;;;;;;5114353;28;20031;-84
2021/12/21 10:49:45;;;;;;;12.35;6.80;;;1.00;99.90;;;;;;5114320;28;20038;-85
2021/12/21 10:52:31;;;;;;;;;;;0.10;99.90;;;;;;5115191;28;20100;-84
2021/12/21 10:55:15;;;;;;;11.90;7.23;;;0.90;99.90;;;;;;5099493;28;19919;-84
2021/12/21 10:58:00;;;;;;;;;;;0.20;99.90;;;;;;5114538;28;20679;-85
2021/12/21 11:00:47;;;;;;;16.70;6.60;;;1.70;99.90;;;;;;5114010;28;20010;-85
2021/12/21 11:03:40;;;;;;;15.67;6.17;;;1.30;99.90;;;;;;5099153;28;20039;-85
2021/12/21 11:06:28;;;;;;;12.27;5.73;;;1.20;99.90;;;;;;5114451;28;20118;-85
2021/12/21 11:09:14;;;;;;;14.23;5.97;;;0.60;99.90;;;;;;5099175;28;20528;-86
2021/12/21 11:11:59;;;;;;;8.67;4.80;;;0.90;99.90;;;;;;5113854;28;20495;-85
2021/12/21 11:14:43;;;;;;;14.27;8.43;;;0.80;99.90;;;;;;5098565;28;20042;-87
2021/12/21 11:17:27;;;;;;;9.83;5.90;;;0.90;99.90;;;;;;5084492;28;20071;-85
2021/12/21 11:20:14;;;;;;;14.30;5.87;;;0.90;99.90;;;;;;5097676;28;20088;-86
2021/12/21 11:22:58;;;;;;;17.50;7.07;;;1.00;99.90;;;;;;5113585;28;20404;-85
2021/12/21 11:25:43;;;;;;;;;;;1.00;99.90;;;;;;5098965;28;20046;-86
2021/12/21 11:28:35;;;;;;;12.03;6.43;;;3.10;99.90;;;;;;5098676;28;19915;-85
2021/12/21 11:31:19;;;;;;;10.53;6.20;;;1.10;99.90;;;;;;5113922;28;20476;-85
2021/12/21 11:34:08;;;;;;;12.73;6.10;;;1.10;99.90;;;;;;5083597;28;20042;-85
2021/12/21 11:39:57;;;;;;;11.90;5.53;;;1.20;99.90;;;;;;5100726;28;20077;-85
2021/12/21 11:42:52;;;;;;;12.10;6.33;;;1.30;99.90;;;;;;5092229;28;20067;-85
2021/12/21 11:45:46;;;;;;;11.97;5.33;;;1.30;99.90;;;;;;5092357;28;20035;-85
2021/12/21 11:48:52;;;;;;;6.72;4.10;;;1.30;99.90;;;;;;5093297;28;20043;-85
2021/12/21 11:51:37;;;;;;;11.77;5.37;;;1.90;99.90;;;;;;5093321;28;20412;-85
2021/12/21 11:54:22;;;;;;;11.07;5.23;;;1.40;99.90;;;;;;5093123;28;20043;-85
2021/12/21 11:57:06;;;;;;;11.47;5.37;;;1.40;99.90;;;;;;5077402;28;20196;-86
2021/12/21 11:59:50;;;;;;;10.68;5.07;;;1.40;99.90;;;;;;5091403;28;20085;-86
2021/12/21 12:02:35;;;;;;;14.13;4.80;;;2.20;99.90;;;;;;5077635;28;20051;-85
2021/12/21 12:05:29;;;;;;;12.90;5.10;;;1.50;99.90;;;;;;5077925;28;20503;-85
2021/12/21 12:08:14;;;;;;;11.10;4.87;;;1.50;99.90;;;;;;5092718;28;20169;-85
2021/12/21 12:10:59;;;;;;;11.13;4.45;;;1.60;99.90;;;;;;5092327;28;20043;-85
2021/12/21 12:13:44;;;;;;;10.00;5.30;;;1.70;99.90;;;;;;5091987;28;20039;-85
2021/12/21 12:16:48;;;;;;;12.00;5.50;;;1.70;99.90;;;;;;5091793;28;20072;-85
2021/12/21 12:19:33;;;;;;;;;;;1.80;99.90;;;;;;5092263;28;20031;-84
2021/12/21 12:22:17;;;;;;;;;;;2.10;99.90;;;;;;5092138;28;20387;-85
2021/12/21 12:25:04;;;;;;;13.30;4.75;;;2.90;99.90;;;;;;5091198;28;19919;-85
2021/12/21 12:27:51;;;;;;;10.40;5.00;;;1.80;99.90;;;;;;5092748;28;20172;-85
2021/12/21 12:30:46;;;;;;;15.27;5.30;;;1.90;99.90;;;;;;5091583;28;20058;-84
2021/12/21 12:33:39;;;;;;;12.87;5.20;;;1.90;99.90;;;;;;5092688;28;20054;-85
2021/12/21 12:36:55;;;;;;;10.07;5.00;;;1.90;99.90;;;;;;5091522;28;20043;-84
2021/12/21 12:39:42;;;;;;;9.27;4.17;;;2.50;99.90;;;;;;5070168;28;20055;-85
2021/12/21 12:42:29;;;;;;;11.13;4.60;;;1.90;99.90;;;;;;5102855;28;23503;-85
2021/12/21 12:45:20;;;;;;;9.73;5.13;;;3.10;99.90;;;;;;5111253;28;20046;-84
2021/12/21 12:48:24;;;;;;;12.27;5.23;;;2.00;99.90;;;;;;5111292;28;20031;-85
2021/12/21 12:51:10;;;;;;;13.57;5.43;;;2.10;99.90;;;;;;5112260;28;20544;-85
2021/12/21 12:53:54;;;;;;;12.47;4.97;;;2.10;99.90;;;;;;5112764;28;20108;-85
2021/12/21 12:56:41;;;;;;;13.90;4.43;;;2.10;99.90;;;;;;5111750;28;20030;-84
2021/12/21 12:59:25;;;;;;;10.63;5.70;;;2.70;99.90;;;;;;5112621;28;20085;-84
2021/12/21 13:02:10;;;;;;;13.20;5.23;;;2.60;99.90;;;;;;5111092;28;20134;-85
2021/12/21 13:04:58;;;;;;;10.97;5.73;;;2.20;99.90;;;;;;5126337;27;20039;-84
2021/12/21 13:07:44;;;;;;;8.17;4.67;;;2.30;99.90;;;;;;5112602;28;20038;-84
2021/12/21 13:10:28;;;;;;;10.17;5.20;;;2.30;99.90;;;;;;5111615;28;20072;-84
2021/12/21 13:13:13;;;;;;;12.68;5.13;;;2.50;99.90;;;;;;5112074;28;20039;-84
2021/12/21 13:16:05;;;;;;;16.50;5.80;;;2.30;99.90;;;;;;5111380;28;20403;-85
2021/12/21 13:19:01;;;;;;;9.80;5.10;;;2.60;99.90;;;;;;5112611;28;20092;-84
2021/12/21 13:21:58;;;;;;;14.27;5.40;;;2.40;99.90;;;;;;5111392;28;20042;-84
2021/12/21 13:24:46;;;;;;;13.97;5.50;;;3.40;99.90;;;;;;5112656;28;20084;-84
2021/12/21 13:27:32;;;;;;;11.43;6.67;;;2.70;99.90;;;;;;5140803;27;20489;-84
2021/12/21 13:30:19;;;;;;;12.37;5.20;;;3.30;99.90;;;;;;5111876;28;20043;-84
2021/12/21 13:33:05;;;;;;;11.27;4.77;;;2.30;99.90;;;;;;5096672;28;20084;-85
2021/12/21 13:35:56;;;;;;;8.83;4.27;;;2.30;99.90;;;;;;5111419;28;20089;-84
2021/12/21 13:38:40;;;;;;;10.07;4.87;;;3.10;99.90;;;;;;5111285;28;20390;-84
2021/12/21 13:41:24;;;;;;;;;;;3.20;99.90;;;;;;5108645;28;20121;-84
2021/12/21 13:44:08;;;;;;;12.32;4.55;;;2.30;99.90;;;;;;5098328;28;19918;-84
2021/12/21 13:46:55;;;;;;;13.90;5.17;;;2.30;99.90;;;;;;5072244;28;20499;-84
2021/12/21 13:49:59;;;;;;;7.47;4.70;;;2.30;99.90;;;;;;5116042;28;20391;-84
2021/12/21 13:52:46;;;;;;;12.60;4.07;;;2.30;99.90;;;;;;5100540;28;20388;-84
2021/12/21 13:55:32;;;;;;;9.07;4.80;;;2.40;99.90;;;;;;5115885;28;20038;-84
2021/12/21 13:58:17;;;;;;;10.37;3.73;;;2.30;99.90;;;;;;5115297;28;20081;-84
2021/12/21 14:01:01;;;;;;;8.27;3.83;;;3.00;99.90;;;;;;5086222;28;20079;-84
2021/12/21 14:03:58;;;;;;;8.90;4.47;;;3.20;99.90;;;;;;5086010;28;20046;-84
2021/12/21 14:06:44;;;;;;;9.37;4.27;;;2.80;99.90;;;;;;5115663;28;20494;-84
2021/12/21 14:09:29;;;;;;;12.07;4.77;;;3.10;99.90;;;;;;5099812;28;20040;-84
2021/12/21 14:12:13;;;;;;;;;;;2.20;99.90;;;;;;5085699;28;20074;-84
2021/12/21 14:14:58;;;;;;;;;;;2.20;99.90;;;;;;5100630;28;19914;-84
2021/12/21 14:17:42;;;;;;;9.80;4.85;;;2.20;99.90;;;;;;5115465;28;19927;-84
2021/12/21 14:20:28;;;;;;;;;;;2.80;99.90;;;;;;5099775;28;20098;-84
2021/12/21 14:23:20;;;;;;;11.30;4.10;;;2.20;99.90;;;;;;5099395;28;19974;-85
2021/12/21 14:26:28;;;;;;;10.80;4.53;;;2.10;99.90;;;;;;5100027;28;20089;-84
2021/12/21 14:29:14;;;;;;;9.03;4.63;;;2.10;99.90;;;;;;5114773;28;20441;-85
2021/12/21 14:34:52;;;;;;;10.53;5.00;;;2.00;99.90;;;;;;5100303;28;20070;-84
2021/12/21 14:37:36;;;;;;;9.20;5.53;;;2.00;99.90;;;;;;5099684;28;20070;-84
2021/12/21 14:40:20;;;;;;;10.43;5.37;;;2.00;99.90;;;;;;5098946;28;20039;-84
2021/12/21 14:43:04;;;;;;;;;;;1.90;99.90;;;;;;5095046;28;20132;-84
2021/12/21 14:45:50;;;;;;;12.07;5.30;;;1.90;99.90;;;;;;5114203;28;20015;-84
2021/12/21 14:48:33;;;;;;;14.63;4.93;;;1.80;99.90;;;;;;5098947;28;20065;-83
2021/12/21 14:51:17;;;;;;;;;;;1.80;99.90;;;;;;5114753;28;20047;-84
2021/12/21 14:54:05;;;;;;;10.82;4.47;;;2.30;99.90;;;;;;5113783;28;19961;-84
2021/12/21 14:56:52;;;;;;;15.07;5.67;;;1.70;99.90;;;;;;5113728;28;20038;-84
2021/12/21 14:59:37;;;;;;;8.17;4.83;;;1.70;99.90;;;;;;5113227;28;20392;-84
2021/12/21 15:02:49;;;;;;;11.57;5.40;;;1.60;99.90;;;;;;5113983;28;20067;-84
2021/12/21 15:05:32;;;;;;;;;;;1.60;99.90;;;;;;5114399;28;20181;-84
2021/12/21 15:08:20;;;;;;;11.57;5.80;;;1.50;99.90;;;;;;5112955;28;19914;-84
2021/12/21 15:11:05;;;;;;;14.70;5.80;;;1.30;99.90;;;;;;5114516;28;20042;-83
2021/12/21 15:13:49;;;;;;;16.00;5.97;;;1.30;99.90;;;;;;5113605;28;20047;-84
2021/12/21 15:16:33;;;;;;;;;;;1.20;99.90;;;;;;5114139;28;20050;-84
2021/12/21 15:19:18;;;;;;;13.18;6.15;;;1.20;99.90;;;;;;5112833;28;19962;-84
2021/12/21 15:22:02;;;;;;;13.30;6.00;;;1.10;99.90;;;;;;5114172;28;20046;-84
2021/12/21 15:24:47;;;;;;;14.17;6.27;;;1.00;99.90;;;;;;5113290;28;20089;-84